Time;durP1;ratioP1;P1;durP2;ratioP2;P2;SDS_P1;SDS_P2;PMS_P1;PMS_P2;Temp;Humidity;BMP_temperature;BMP_pressure;BME280_temperature;BME280_humidity;BME280_pressure;Samples;Min_cycle;Max_cycle;Signal;HPM_P1;HPM_P2
2023/12/26 00:00:01;;;;;;;;;;;;;;;9.29;74.16;99355.00;4368721;32;33765;-90
2023/12/26 00:02:41;;;;;;;;;;;;;;;9.44;72.99;99359.13;4368515;32;33198;-90
2023/12/26 00:05:10;;;;;;;;;;;;;;;9.52;72.64;99367.63;4371313;32;33569;-90
2023/12/26 00:07:39;;;;;;;;;;;;;;;9.23;73.42;99357.66;4366632;32;32628;-90
2023/12/26 00:10:10;;;;;;;;;;;;;;;9.27;73.31;99373.12;4373545;32;32893;-90
2023/12/26 00:12:42;;;;;;;;;;;;;;;9.24;73.26;99374.91;4355617;32;33879;-90
2023/12/26 00:15:25;;;;;;;;;;;;;;;9.30;73.08;99380.88;4369172;32;33767;-90
2023/12/26 00:17:59;;;;;;;;;;;;;;;9.24;73.73;99368.00;4351564;32;33342;-89
2023/12/26 00:20:28;;;;;;;;;;;;;;;9.26;73.50;99355.06;4369443;32;33653;-90
2023/12/26 00:22:57;;;;;;;;;;;;;;;9.17;74.00;99361.19;4374844;32;34084;-89
2023/12/26 00:25:26;;;;;;;;;;;;;;;9.44;73.51;99366.88;4370146;32;33898;-89
2023/12/26 00:27:55;;;;;;;;;;;;;;;9.53;73.38;99380.56;4368596;32;34036;-91
2023/12/26 00:30:27;;;;;;;;;;;;;;;9.45;73.83;99381.53;4367591;32;32121;-90
2023/12/26 00:32:56;;;;;;;;;;;;;;;9.37;74.32;99384.22;4373550;32;34400;-92
2023/12/26 00:35:33;;;;;;;;;;;;;;;9.54;74.00;99373.63;4369895;32;31411;-91
2023/12/26 00:38:02;;;;;;;;;;;;;;;9.61;73.68;99372.66;4369056;32;34313;-90
2023/12/26 00:40:30;;;;;;;;;;;;;;;9.64;73.41;99374.38;4365318;32;33741;-89
2023/12/26 00:43:06;;;;;;;;;;;;;;;9.88;72.08;99371.41;4371741;32;34038;-90
2023/12/26 00:45:37;;;;;;;;;;;;;;;9.64;73.31;99370.06;4369798;32;33946;-89
2023/12/26 00:48:17;;;;;;;;;;;;;;;9.47;73.34;99374.59;4364421;32;34754;-89
2023/12/26 00:50:56;;;;;;;;;;;;;;;9.57;73.13;99371.03;4365201;32;34736;-89
2023/12/26 00:53:31;;;;;;;;;;;;;;;9.42;73.39;99366.88;4368170;32;33373;-90
2023/12/26 00:55:59;;;;;;;;;;;;;;;9.69;72.19;99378.63;4368862;32;34444;-89
2023/12/26 00:58:28;;;;;;;;;;;;;;;9.50;72.23;99377.16;4375200;32;33852;-89
2023/12/26 01:01:00;;;;;;;;;;;;;;;9.45;72.38;99372.06;4369132;32;32083;-89
2023/12/26 01:03:33;;;;;;;;;;;;;;;9.23;73.29;99368.91;4354600;32;33061;-89
2023/12/26 01:06:05;;;;;;;;;;;;;;;9.43;72.59;99366.03;4369547;32;34135;-90
2023/12/26 01:08:45;;;;;;;;;;;;;;;9.28;72.95;99364.50;4370797;32;34150;-91
2023/12/26 01:11:19;;;;;;;;;;;;;;;9.10;73.36;99325.91;4375419;32;32443;-89
2023/12/26 01:13:49;;;;;;;;;;;;;;;8.98;74.43;99345.87;4370074;32;31535;-90
2023/12/26 01:16:31;;;;;;;;;;;;;;;9.26;73.03;99365.41;4369718;32;33934;-89
2023/12/26 01:19:08;;;;;;;;;;;;;;;9.36;72.39;99370.44;4363408;32;34228;-90
2023/12/26 01:21:48;;;;;;;;;;;;;;;9.01;73.63;99370.88;4371350;32;32955;-90
2023/12/26 01:24:19;;;;;;;;;;;;;;;9.24;72.50;99375.78;4373727;32;34534;-89
2023/12/26 01:26:48;;;;;;;;;;;;;;;9.20;72.41;99358.56;4362088;32;33892;-88
2023/12/26 01:29:17;;;;;;;;;;;;;;;9.31;72.11;99366.19;4367129;32;34538;-88
2023/12/26 01:31:47;;;;;;;;;;;;;;;9.33;72.34;99362.72;4366872;32;33858;-90
2023/12/26 01:34:18;;;;;;;;;;;;;;;9.36;71.96;99357.47;4374357;32;33772;-90
2023/12/26 01:36:57;;;;;;;;;;;;;;;9.39;72.58;99364.34;4369296;32;34565;-90
2023/12/26 01:39:30;;;;;;;;;;;;;;;9.26;73.04;99374.03;4354386;32;34224;-90
2023/12/26 01:41:59;;;;;;;;;;;;;;;9.41;73.11;99370.38;4369173;32;33362;-90
2023/12/26 01:44:30;;;;;;;;;;;;;;;9.11;74.08;99367.31;4368230;32;33879;-90
2023/12/26 01:47:00;;;;;;;;;;;;;;;9.33;73.08;99359.28;4371373;32;33180;-90
2023/12/26 01:49:30;;;;;;;;;;;;;;;9.08;74.25;99363.88;4369102;32;33696;-91
2023/12/26 01:52:02;;;;;;;;;;;;;;;9.11;73.45;99376.78;4369655;32;33173;-90
2023/12/26 01:54:32;;;;;;;;;;;;;;;8.93;74.32;99381.31;4353340;32;34200;-90
2023/12/26 01:57:02;;;;;;;;;;;;;;;9.08;74.01;99369.91;4369035;32;34484;-90
2023/12/26 01:59:37;;;;;;;;;;;;;;;9.25;72.87;99368.84;4373351;32;33777;-90
2023/12/26 02:02:06;;;;;;;;;;;;;;;8.94;74.05;99364.94;4367007;32;32948;-91
2023/12/26 02:04:34;;;;;;;;;;;;;;;9.10;73.12;99357.81;4371303;32;34201;-90
2023/12/26 02:07:06;;;;;;;;;;;;;;;8.78;74.39;99360.81;4370411;32;33297;-91
2023/12/26 02:09:35;;;;;;;;;;;;;;;8.88;72.77;99358.97;4373883;32;33629;-91
2023/12/26 02:12:05;;;;;;;;;;;;;;;8.63;74.10;99356.66;4369213;32;33073;-91
2023/12/26 02:14:35;;;;;;;;;;;;;;;8.69;73.08;99355.72;4371147;32;33233;-91
2023/12/26 02:17:08;;;;;;;;;;;;;;;8.89;72.81;99355.50;4369617;32;33950;-91
2023/12/26 02:19:46;;;;;;;;;;;;;;;8.69;73.16;99348.81;4370472;32;34609;-90
2023/12/26 02:22:19;;;;;;;;;;;;;;;8.50;73.72;99355.91;4375348;32;33319;-90
2023/12/26 02:24:52;;;;;;;;;;;;;;;8.57;73.35;99346.37;4374617;32;33785;-90
2023/12/26 02:27:24;;;;;;;;;;;;;;;8.76;73.08;99347.88;4370736;32;34960;-90
2023/12/26 02:29:53;;;;;;;;;;;;;;;8.82;73.04;99344.38;4369752;32;33928;-90
2023/12/26 02:32:23;;;;;;;;;;;;;;;8.68;73.18;99348.84;4371700;32;33128;-91
2023/12/26 02:34:55;;;;;;;;;;;;;;;8.83;72.54;99342.66;4374728;32;34395;-90
2023/12/26 02:37:24;;;;;;;;;;;;;;;8.34;74.09;99344.00;4371391;32;34905;-90
2023/12/26 02:39:54;;;;;;;;;;;;;;;8.49;74.02;99345.59;4370493;32;34531;-90
2023/12/26 02:42:30;;;;;;;;;;;;;;;8.24;74.80;99348.41;4355630;32;33502;-91
2023/12/26 02:44:58;;;;;;;;;;;;;;;8.47;74.60;99340.44;4374861;32;36388;-91
2023/12/26 02:47:28;;;;;;;;;;;;;;;8.49;74.25;99338.69;4370439;32;34451;-90
2023/12/26 02:49:56;;;;;;;;;;;;;;;8.60;73.92;99340.31;4370847;32;34364;-91
2023/12/26 02:52:25;;;;;;;;;;;;;;;8.55;74.08;99340.34;4369136;32;32801;-91
2023/12/26 02:54:59;;;;;;;;;;;;;;;8.53;74.55;99342.12;4370742;32;35048;-90
2023/12/26 02:57:33;;;;;;;;;;;;;;;8.60;74.28;99350.66;4375580;32;34232;-90
2023/12/26 03:00:02;;;;;;;;;;;;;;;8.89;73.54;99348.59;4369108;32;33654;-91
2023/12/26 03:02:35;;;;;;;;;;;;;;;8.80;74.27;99348.72;4371257;32;32696;-90
2023/12/26 03:05:04;;;;;;;;;;;;;;;8.79;74.59;99346.97;4373033;32;34131;-90
2023/12/26 03:07:33;;;;;;;;;;;;;;;8.88;74.41;99333.94;4375355;32;33806;-89
2023/12/26 03:10:08;;;;;;;;;;;;;;;8.67;75.66;99344.53;4371562;32;34156;-89
2023/12/26 03:12:44;;;;;;;;;;;;;;;8.87;74.65;99346.91;4366969;32;32902;-90
2023/12/26 03:15:23;;;;;;;;;;;;;;;8.77;74.82;99343.59;4371362;32;33685;-90
2023/12/26 03:17:53;;;;;;;;;;;;;;;8.90;73.87;99331.34;4370038;32;34205;-89
2023/12/26 03:20:29;;;;;;;;;;;;;;;8.62;74.85;99334.25;4376040;32;34140;-90
2023/12/26 03:22:59;;;;;;;;;;;;;;;8.50;75.64;99330.06;4373978;32;32465;-90
2023/12/26 03:25:29;;;;;;;;;;;;;;;8.63;74.71;99332.53;4372663;32;34398;-90
2023/12/26 03:28:05;;;;;;;;;;;;;;;8.33;75.56;99330.19;4369901;32;35508;-90
2023/12/26 03:30:34;;;;;;;;;;;;;;;8.44;74.65;99327.53;4370488;32;33681;-90
2023/12/26 03:33:06;;;;;;;;;;;;;;;8.41;74.63;99317.25;4375617;32;32913;-90
2023/12/26 03:35:35;;;;;;;;;;;;;;;8.61;73.16;99322.19;4371788;32;34401;-90
2023/12/26 03:38:05;;;;;;;;;;;;;;;8.53;73.17;99314.53;4367537;32;34788;-90
2023/12/26 03:40:36;;;;;;;;;;;;;;;8.46;73.43;99319.78;4370222;32;33959;-89
2023/12/26 03:43:08;;;;;;;;;;;;;;;8.30;73.75;99313.88;4370825;32;32967;-90
2023/12/26 03:45:37;;;;;;;;;;;;;;;8.32;73.79;99312.12;4364145;32;33938;-90
2023/12/26 03:48:07;;;;;;;;;;;;;;;8.29;73.61;99304.41;4368858;32;33945;-89
2023/12/26 03:50:36;;;;;;;;;;;;;;;8.22;73.45;99297.59;4362692;32;34556;-90
2023/12/26 03:53:05;;;;;;;;;;;;;;;8.11;73.35;99292.53;4373492;32;32664;-90
2023/12/26 03:55:37;;;;;;;;;;;;;;;8.05;73.70;99283.09;4368902;32;33706;-90
2023/12/26 03:58:05;;;;;;;;;;;;;;;8.19;73.20;99282.09;4369305;32;33417;-90
2023/12/26 04:00:42;;;;;;;;;;;;;;;8.39;72.41;99287.94;4369094;32;33767;-90
2023/12/26 04:03:12;;;;;;;;;;;;;;;8.24;72.51;99286.38;4358019;32;33027;-90
2023/12/26 04:05:41;;;;;;;;;;;;;;;8.01;72.84;99285.72;4363670;32;33477;-90
2023/12/26 04:08:16;;;;;;;;;;;;;;;8.01;73.22;99290.91;4374483;32;34873;-91
2023/12/26 04:10:46;;;;;;;;;;;;;;;8.10;72.75;99293.41;4368048;32;34789;-91
2023/12/26 04:13:17;;;;;;;;;;;;;;;8.11;73.06;99293.38;4369862;32;33738;-91
2023/12/26 04:15:46;;;;;;;;;;;;;;;8.22;73.09;99285.53;4370318;32;34003;-91
2023/12/26 04:18:14;;;;;;;;;;;;;;;8.34;72.68;99292.31;4375209;32;33746;-90
2023/12/26 04:20:44;;;;;;;;;;;;;;;8.04;73.17;99272.78;4369166;32;33804;-90
2023/12/26 04:23:15;;;;;;;;;;;;;;;7.93;73.55;99283.22;4369071;32;32682;-91
2023/12/26 04:25:47;;;;;;;;;;;;;;;7.94;73.44;99284.94;4363230;32;34327;-90
2023/12/26 04:28:21;;;;;;;;;;;;;;;8.29;73.46;99294.09;4368888;32;34085;-90
2023/12/26 04:30:49;;;;;;;;;;;;;;;8.10;73.53;99299.41;4373947;32;35012;-90
2023/12/26 04:33:19;;;;;;;;;;;;;;;7.91;73.82;99303.91;4368743;32;33023;-90
2023/12/26 04:35:49;;;;;;;;;;;;;;;7.70;74.98;99312.66;4369712;32;34603;-89
2023/12/26 04:38:18;;;;;;;;;;;;;;;7.97;74.03;99310.72;4368859;32;34055;-89
2023/12/26 04:40:52;;;;;;;;;;;;;;;7.70;74.73;99304.06;4375168;32;34102;-90
2023/12/26 04:43:21;;;;;;;;;;;;;;;7.85;73.84;99300.50;4370800;32;33223;-90
2023/12/26 04:45:53;;;;;;;;;;;;;;;8.08;73.52;99298.56;4373069;32;34549;-90
2023/12/26 04:48:22;;;;;;;;;;;;;;;7.75;75.12;99304.03;4368126;32;34869;-89
2023/12/26 04:50:52;;;;;;;;;;;;;;;7.89;73.64;99307.34;4367856;32;33790;-90
2023/12/26 04:53:24;;;;;;;;;;;;;;;7.47;76.61;99310.25;4373645;32;34021;-90
2023/12/26 04:55:57;;;;;;;;;;;;;;;7.70;74.97;99324.72;4372768;32;33408;-91
2023/12/26 04:58:29;;;;;;;;;;;;;;;7.86;74.12;99320.31;4369205;32;34196;-90
2023/12/26 05:01:00;;;;;;;;;;;;;;;8.04;73.27;99335.63;4369335;32;33733;-91
2023/12/26 05:03:31;;;;;;;;;;;;;;;7.76;74.03;99327.28;4371667;32;33743;-90
2023/12/26 05:06:00;;;;;;;;;;;;;;;7.29;76.10;99322.41;4376780;32;33359;-90
2023/12/26 05:08:30;;;;;;;;;;;;;;;7.58;74.95;99322.22;4370688;32;33789;-90
2023/12/26 05:11:01;;;;;;;;;;;;;;;7.68;74.65;99329.91;4371033;32;33896;-90
2023/12/26 05:13:31;;;;;;;;;;;;;;;7.61;74.47;99320.50;4364591;32;33989;-90
2023/12/26 05:16:01;;;;;;;;;;;;;;;7.69;74.33;99333.34;4376710;32;33175;-90
2023/12/26 05:18:30;;;;;;;;;;;;;;;7.64;74.04;99332.53;4369654;32;34263;-91
2023/12/26 05:21:03;;;;;;;;;;;;;;;7.27;74.12;99325.00;4370332;32;34764;-91
2023/12/26 05:23:31;;;;;;;;;;;;;;;7.60;74.41;99325.66;4373368;32;33063;-90
2023/12/26 05:26:05;;;;;;;;;;;;;;;7.61;74.49;99323.09;4371426;32;34753;-90
2023/12/26 05:28:41;;;;;;;;;;;;;;;7.67;74.45;99317.84;4366278;32;34884;-90
2023/12/26 05:31:10;;;;;;;;;;;;;;;7.57;74.62;99315.37;4367972;32;34121;-91
2023/12/26 05:33:39;;;;;;;;;;;;;;;7.44;74.80;99325.78;4372173;32;33660;-90
2023/12/26 05:36:08;;;;;;;;;;;;;;;7.27;75.02;99322.41;4374282;32;33285;-90
2023/12/26 05:38:39;;;;;;;;;;;;;;;7.24;74.27;99307.81;4376609;32;33917;-90
2023/12/26 05:41:09;;;;;;;;;;;;;;;7.35;73.84;99312.06;4370499;32;33292;-90
2023/12/26 05:43:38;;;;;;;;;;;;;;;7.23;73.58;99311.28;4367554;32;33154;-90
2023/12/26 05:46:10;;;;;;;;;;;;;;;7.13;73.81;99314.78;4366715;32;34328;-90
2023/12/26 05:48:45;;;;;;;;;;;;;;;7.09;73.53;99305.31;4371289;32;34240;-91
2023/12/26 05:51:14;;;;;;;;;;;;;;;7.06;73.56;99310.50;4376396;32;33889;-90
2023/12/26 05:53:44;;;;;;;;;;;;;;;7.02;73.15;99316.53;4370970;32;34023;-91
2023/12/26 05:56:13;;;;;;;;;;;;;;;7.22;72.28;99316.44;4371795;32;34552;-90
2023/12/26 05:58:51;;;;;;;;;;;;;;;7.36;71.34;99312.03;4371623;32;35099;-90
2023/12/26 06:01:19;;;;;;;;;;;;;;;6.82;73.43;99291.69;4372767;32;34176;-90
2023/12/26 06:03:54;;;;;;;;;;;;;;;6.70;73.85;99283.19;4376491;32;33842;-90
2023/12/26 06:06:23;;;;;;;;;;;;;;;6.90;73.18;99301.97;4371703;32;34031;-90
2023/12/26 06:08:59;;;;;;;;;;;;;;;6.78;72.78;99308.03;4370608;32;34267;-90
2023/12/26 06:11:31;;;;;;;;;;;;;;;6.73;73.17;99314.09;4371122;32;34319;-90
2023/12/26 06:14:00;;;;;;;;;;;;;;;6.53;73.67;99306.44;4376343;32;34797;-90
2023/12/26 06:16:29;;;;;;;;;;;;;;;6.54;73.52;99321.88;4367488;32;34034;-90
2023/12/26 06:18:59;;;;;;;;;;;;;;;6.49;73.55;99315.03;4370584;32;34726;-91
2023/12/26 06:21:33;;;;;;;;;;;;;;;6.51;73.18;99318.47;4370932;32;34755;-90
2023/12/26 06:24:02;;;;;;;;;;;;;;;6.38;73.95;99315.06;4375598;32;33593;-90
2023/12/26 06:26:34;;;;;;;;;;;;;;;6.32;74.08;99313.34;4376209;32;32625;-91
2023/12/26 06:29:03;;;;;;;;;;;;;;;6.61;72.81;99309.81;4370628;32;33560;-90
2023/12/26 06:31:31;;;;;;;;;;;;;;;6.83;73.43;99311.44;4356384;32;33284;-91
2023/12/26 06:34:02;;;;;;;;;;;;;;;6.75;74.00;99310.62;4373546;32;33815;-90
2023/12/26 06:36:32;;;;;;;;;;;;;;;6.56;73.98;99312.41;4375851;32;33623;-90
2023/12/26 06:39:03;;;;;;;;;;;;;;;6.54;74.82;99316.72;4370358;32;34176;-90
2023/12/26 06:41:35;;;;;;;;;;;;;;;6.54;74.35;99326.16;4371382;32;33686;-90
2023/12/26 06:44:07;;;;;;;;;;;;;;;6.80;74.06;99314.06;4370665;32;33463;-91
2023/12/26 06:46:40;;;;;;;;;;;;;;;6.48;74.60;99321.06;4370119;32;33656;-91
2023/12/26 06:49:08;;;;;;;;;;;;;;;6.71;73.68;99308.94;4375630;32;33627;-90
2023/12/26 06:51:43;;;;;;;;;;;;;;;6.54;73.70;99314.13;4369945;32;33751;-90
2023/12/26 06:54:12;;;;;;;;;;;;;;;6.66;73.41;99320.13;4371189;32;33800;-90
2023/12/26 06:56:45;;;;;;;;;;;;;;;6.42;74.16;99329.63;4370531;32;33882;-90
2023/12/26 06:59:14;;;;;;;;;;;;;;;6.50;73.72;99333.06;4370407;32;34107;-90
2023/12/26 07:01:45;;;;;;;;;;;;;;;6.29;74.04;99333.09;4372223;32;33694;-90
2023/12/26 07:04:13;;;;;;;;;;;;;;;6.21;74.55;99340.84;4371259;32;32875;-90
2023/12/26 07:06:43;;;;;;;;;;;;;;;6.23;73.88;99351.97;4373197;32;34084;-90
2023/12/26 07:09:15;;;;;;;;;;;;;;;6.69;72.67;99354.47;4369991;32;33421;-90
2023/12/26 07:11:43;;;;;;;;;;;;;;;6.79;72.81;99353.59;4375716;32;33744;-90
2023/12/26 07:14:19;;;;;;;;;;;;;;;6.67;73.46;99353.66;4371048;32;33074;-90
2023/12/26 07:16:47;;;;;;;;;;;;;;;6.62;73.69;99353.66;4373038;32;33464;-90
2023/12/26 07:19:17;;;;;;;;;;;;;;;6.49;74.91;99363.97;4368313;32;35000;-90
2023/12/26 07:21:46;;;;;;;;;;;;;;;6.43;75.34;99369.13;4370446;32;35706;-90
2023/12/26 07:24:20;;;;;;;;;;;;;;;6.43;75.27;99376.87;4371304;32;32969;-91
2023/12/26 07:26:50;;;;;;;;;;;;;;;6.37;75.48;99380.31;4372937;32;34043;-90
2023/12/26 07:29:23;;;;;;;;;;;;;;;6.30;75.01;99382.03;4370578;32;33275;-90
2023/12/26 07:31:52;;;;;;;;;;;;;;;6.11;75.75;99376.06;4369805;32;33535;-90
2023/12/26 07:34:21;;;;;;;;;;;;;;;6.29;74.41;99380.34;4374871;32;32650;-90
2023/12/26 07:36:51;;;;;;;;;;;;;;;6.36;74.81;99382.03;4371512;32;34105;-89
2023/12/26 07:39:21;;;;;;;;;;;;;;;6.04;76.06;99384.66;4370266;32;34220;-91
2023/12/26 07:41:50;;;;;;;;;;;;;;;6.16;75.29;99386.34;4370076;32;34177;-91
2023/12/26 07:44:23;;;;;;;;;;;;;;;6.27;75.17;99394.94;4370489;32;31242;-91
2023/12/26 07:46:52;;;;;;;;;;;;;;;6.37;75.19;99394.06;4374690;32;33695;-91
2023/12/26 07:49:26;;;;;;;;;;;;;;;6.51;74.64;99390.63;4354647;32;34976;-90
2023/12/26 07:51:59;;;;;;;;;;;;;;;6.45;75.06;99388.03;4355908;32;32392;-90
2023/12/26 07:54:28;;;;;;;;;;;;;;;6.51;74.76;99388.03;4373510;32;33693;-91
2023/12/26 07:56:57;;;;;;;;;;;;;;;6.49;75.26;99394.91;4374458;32;34741;-91
2023/12/26 07:59:30;;;;;;;;;;;;;;;6.47;75.55;99397.47;4368887;32;33590;-91
2023/12/26 08:02:02;;;;;;;;;;;;;;;6.72;75.18;99389.72;4364038;32;34376;-91
2023/12/26 08:04:30;;;;;;;;;;;;;;;6.89;75.05;99385.38;4359954;32;31847;-91
2023/12/26 08:07:03;;;;;;;;;;;;;;;6.74;75.44;99383.69;4368512;32;34603;-91
2023/12/26 08:09:31;;;;;;;;;;;;;;;6.96;75.22;99387.06;4374286;32;34922;-91
2023/12/26 08:12:04;;;;;;;;;;;;;;;6.94;75.71;99391.37;4369222;32;34006;-90
2023/12/26 08:14:34;;;;;;;;;;;;;;;6.95;76.85;99389.63;4368222;32;33700;-91
2023/12/26 08:17:03;;;;;;;;;;;;;;;7.12;76.59;99392.16;4369736;32;34130;-91
2023/12/26 08:19:36;;;;;;;;;;;;;;;7.14;76.86;99388.72;4371186;32;35218;-90
2023/12/26 08:22:05;;;;;;;;;;;;;;;7.51;76.25;99398.84;4374211;32;34281;-90
2023/12/26 08:24:35;;;;;;;;;;;;;;;7.51;77.19;99403.16;4368920;32;34123;-91
2023/12/26 08:27:04;;;;;;;;;;;;;;;7.66;77.28;99395.34;4368819;32;33836;-90
2023/12/26 08:29:36;;;;;;;;;;;;;;;7.65;77.05;99394.47;4370174;32;35188;-90
2023/12/26 08:32:11;;;;;;;;;;;;;;;7.72;77.19;99402.19;4372025;32;33781;-91
2023/12/26 08:34:41;;;;;;;;;;;;;;;7.86;77.46;99401.22;4370727;32;33081;-90
2023/12/26 08:37:10;;;;;;;;;;;;;;;8.05;77.37;99394.19;4368965;32;33829;-91
2023/12/26 08:39:39;;;;;;;;;;;;;;;8.12;77.21;99395.88;4370052;32;33673;-91
2023/12/26 08:42:13;;;;;;;;;;;;;;;8.46;75.72;99393.03;4369374;32;34582;-91
2023/12/26 08:44:43;;;;;;;;;;;;;;;8.48;75.44;99380.94;4375222;32;33026;-90
2023/12/26 08:47:11;;;;;;;;;;;;;;;8.40;76.16;99377.56;4372536;32;34601;-91
2023/12/26 08:49:43;;;;;;;;;;;;;;;8.24;77.40;99375.94;4363839;32;34497;-91
2023/12/26 08:52:13;;;;;;;;;;;;;;;8.72;75.07;99379.84;4371727;32;33640;-91
2023/12/26 08:54:44;;;;;;;;;;;;;;;8.50;76.08;99376.59;4373889;32;33289;-91
2023/12/26 08:57:12;;;;;;;;;;;;;;;8.63;76.84;99371.31;4375100;32;33143;-91
2023/12/26 08:59:46;;;;;;;;;;;;;;;8.90;75.48;99381.34;4370273;32;34666;-91
2023/12/26 09:02:15;;;;;;;;;;;;;;;8.58;76.89;99381.72;4367868;32;33785;-91
2023/12/26 09:04:44;;;;;;;;;;;;;;;8.76;76.41;99388.41;4371912;32;33310;-91
2023/12/26 09:07:13;;;;;;;;;;;;;;;9.16;74.79;99380.19;4376242;32;34018;-91
2023/12/26 09:09:42;;;;;;;;;;;;;;;9.20;74.86;99387.03;4371718;32;34736;-91
2023/12/26 09:12:10;;;;;;;;;;;;;;;9.26;74.87;99392.13;4371298;32;34855;-90
2023/12/26 09:14:41;;;;;;;;;;;;;;;9.19;75.80;99385.31;4372124;32;32966;-90
2023/12/26 09:17:11;;;;;;;;;;;;;;;9.37;75.22;99382.50;4365066;32;34914;-91
2023/12/26 09:19:41;;;;;;;;;;;;;;;9.43;75.83;99384.16;4361771;32;33673;-91
2023/12/26 09:22:09;;;;;;;;;;;;;;;9.86;73.23;99388.72;4357615;32;33868;-90
2023/12/26 09:24:45;;;;;;;;;;;;;;;9.94;72.90;99391.19;4367127;32;32896;-90
2023/12/26 09:27:14;;;;;;;;;;;;;;;9.94;73.28;99392.03;4373082;32;34224;-91
2023/12/26 09:29:44;;;;;;;;;;;;;;;9.90;72.96;99402.47;4375759;32;32473;-90
2023/12/26 09:32:14;;;;;;;;;;;;;;;10.21;70.74;99408.88;4370559;32;34712;-90
2023/12/26 09:34:43;;;;;;;;;;;;;;;10.31;69.84;99404.44;4375767;32;33723;-90
2023/12/26 09:37:12;;;;;;;;;;;;;;;10.23;70.11;99406.28;4371805;32;34113;-91
2023/12/26 09:39:50;;;;;;;;;;;;;;;10.24;69.49;99418.34;4376683;32;35081;-90
2023/12/26 09:42:19;;;;;;;;;;;;;;;10.23;69.26;99420.09;4370810;32;34463;-90
2023/12/26 09:44:48;;;;;;;;;;;;;;;10.26;68.99;99425.22;4371709;32;33281;-91
2023/12/26 09:47:19;;;;;;;;;;;;;;;10.15;69.49;99426.31;4371286;32;33509;-90
2023/12/26 09:49:50;;;;;;;;;;;;;;;10.23;69.16;99417.50;4371351;32;33970;-90
2023/12/26 09:52:19;;;;;;;;;;;;;;;10.24;68.92;99421.81;4376341;32;33983;-90
2023/12/26 09:57:21;;;;;;;;;;;;;;;10.37;67.69;99419.06;4372396;32;33459;-90
2023/12/26 09:59:52;;;;;;;;;;;;;;;10.31;67.95;99416.56;4370672;32;34741;-90
2023/12/26 10:02:21;;;;;;;;;;;;;;;10.00;69.31;99402.34;4369353;32;33804;-90
2023/12/26 10:04:52;;;;;;;;;;;;;;;10.04;69.50;99421.25;4366731;32;32608;-90
2023/12/26 10:07:23;;;;;;;;;;;;;;;9.85;70.63;99419.81;4371426;32;34432;-90
2023/12/26 10:09:55;;;;;;;;;;;;;;;10.03;69.28;99422.16;4370955;32;35299;-90
2023/12/26 10:12:26;;;;;;;;;;;;;;;9.87;70.03;99418.06;4370766;32;33820;-89
2023/12/26 10:14:58;;;;;;;;;;;;;;;9.93;69.37;99415.38;4374741;32;33562;-90
2023/12/26 10:17:27;;;;;;;;;;;;;;;9.60;70.59;99418.44;4371053;32;33478;-90
2023/12/26 10:19:56;;;;;;;;;;;;;;;9.50;71.38;99408.25;4370429;32;33817;-90
2023/12/26 10:22:30;;;;;;;;;;;;;;;9.76;70.47;99423.41;4370244;32;33447;-89
2023/12/26 10:25:02;;;;;;;;;;;;;;;9.88;69.98;99415.44;4363003;32;33188;-90
2023/12/26 10:27:32;;;;;;;;;;;;;;;9.86;70.12;99405.97;4370513;32;33468;-90
2023/12/26 10:30:01;;;;;;;;;;;;;;;9.90;70.22;99399.87;4362517;32;34317;-90
2023/12/26 10:32:32;;;;;;;;;;;;;;;9.85;70.24;99391.34;4356753;32;34248;-90
2023/12/26 10:35:13;;;;;;;;;;;;;;;10.15;69.50;99405.56;4371733;32;32593;-90
2023/12/26 10:37:44;;;;;;;;;;;;;;;9.92;70.40;99390.34;4374701;32;34819;-90
2023/12/26 10:40:14;;;;;;;;;;;;;;;10.10;70.01;99386.59;4369657;32;35046;-90
2023/12/26 10:42:46;;;;;;;;;;;;;;;10.25;69.64;99395.00;4369642;32;33300;-90
2023/12/26 10:45:15;;;;;;;;;;;;;;;10.18;69.86;99377.84;4370423;32;33312;-90
2023/12/26 10:47:48;;;;;;;;;;;;;;;10.56;68.59;99391.94;4369805;32;34536;-91
2023/12/26 10:50:18;;;;;;;;;;;;;;;10.28;69.76;99388.94;4370589;32;33730;-91
2023/12/26 10:52:52;;;;;;;;;;;;;;;10.46;69.15;99383.44;4369413;32;33890;-90
2023/12/26 10:55:21;;;;;;;;;;;;;;;10.36;69.77;99378.44;4366969;32;32283;-90
2023/12/26 10:57:51;;;;;;;;;;;;;;;10.42;69.65;99383.53;4370082;32;33722;-89
2023/12/26 11:00:19;;;;;;;;;;;;;;;10.42;69.70;99373.16;4373976;32;34025;-90
2023/12/26 11:02:49;;;;;;;;;;;;;;;10.48;69.90;99378.22;4373178;32;32465;-90
2023/12/26 11:05:18;;;;;;;;;;;;;;;10.54;70.07;99372.94;4372798;32;33219;-90
2023/12/26 11:07:46;;;;;;;;;;;;;;;10.46;70.46;99361.81;4369270;32;34122;-90
2023/12/26 11:10:15;;;;;;;;;;;;;;;10.64;69.65;99374.47;4370242;32;35200;-90
2023/12/26 11:12:42;;;;;;;;;;;;;;;10.77;69.22;99380.28;4374543;32;33395;-90
2023/12/26 11:15:14;;;;;;;;;;;;;;;10.73;69.35;99385.56;4373418;32;32577;-90
2023/12/26 11:17:41;;;;;;;;;;;;;;;10.59;70.06;99378.91;4370888;32;33805;-90
2023/12/26 11:20:11;;;;;;;;;;;;;;;10.84;68.72;99386.22;4371036;32;33378;-90
2023/12/26 11:22:45;;;;;;;;;;;;;;;10.97;67.15;99376.44;4375944;32;36458;-90
2023/12/26 11:25:17;;;;;;;;;;;;;;;10.68;68.25;99372.69;4357466;32;33466;-90
2023/12/26 11:27:45;;;;;;;;;;;;;;;10.37;69.45;99356.81;4358863;32;33842;-89
2023/12/26 11:30:13;;;;;;;;;;;;;;;10.42;69.55;99361.03;4369724;32;34045;-90
2023/12/26 11:32:43;;;;;;;;;;;;;;;10.73;68.57;99377.75;4371073;32;34217;-91
2023/12/26 11:35:16;;;;;;;;;;;;;;;10.58;69.34;99391.87;4364800;32;32882;-90
2023/12/26 11:37:44;;;;;;;;;;;;;;;10.58;69.61;99374.59;4363696;32;33319;-90
2023/12/26 11:40:12;;;;;;;;;;;;;;;10.53;69.92;99360.84;4372899;32;34683;-90
2023/12/26 11:42:44;;;;;;;;;;;;;;;10.87;69.33;99367.97;4364344;32;33169;-90
2023/12/26 11:45:13;;;;;;;;;;;;;;;10.89;69.24;99359.28;4370214;32;33181;-90
2023/12/26 11:47:40;;;;;;;;;;;;;;;10.81;69.03;99355.13;4365339;32;34828;-90
2023/12/26 11:50:09;;;;;;;;;;;;;;;10.92;68.87;99363.59;4368922;32;34830;-90
2023/12/26 11:52:38;;;;;;;;;;;;;;;10.65;69.59;99364.94;4362316;32;34372;-90
2023/12/26 11:55:06;;;;;;;;;;;;;;;10.59;69.57;99367.66;4369389;32;34025;-90
2023/12/26 11:57:35;;;;;;;;;;;;;;;10.63;68.98;99364.09;4371241;32;33812;-90
2023/12/26 12:00:05;;;;;;;;;;;;;;;10.53;69.27;99360.84;4367501;32;33788;-90
2023/12/26 12:02:32;;;;;;;;;;;;;;;10.50;69.07;99358.31;4359484;32;34909;-90
2023/12/26 12:05:05;;;;;;;;;;;;;;;10.48;69.30;99365.25;4371058;32;34386;-90
2023/12/26 12:07:32;;;;;;;;;;;;;;;10.52;68.88;99364.31;4372768;32;33853;-91
2023/12/26 12:10:10;;;;;;;;;;;;;;;10.57;68.66;99375.47;4373552;32;33730;-90
2023/12/26 12:12:38;;;;;;;;;;;;;;;10.62;68.74;99388.34;4371422;32;33434;-91
2023/12/26 12:15:06;;;;;;;;;;;;;;;10.42;69.34;99386.13;4374523;32;32397;-90
2023/12/26 12:17:35;;;;;;;;;;;;;;;10.55;68.99;99391.94;4371001;32;34079;-90
2023/12/26 12:20:05;;;;;;;;;;;;;;;10.34;69.59;99386.25;4377300;32;34671;-90
2023/12/26 12:22:33;;;;;;;;;;;;;;;10.42;69.82;99380.94;4368945;32;33310;-90
2023/12/26 12:25:01;;;;;;;;;;;;;;;10.33;70.07;99388.88;4361323;32;33127;-90
2023/12/26 12:27:35;;;;;;;;;;;;;;;10.62;68.88;99385.75;4371674;32;34041;-91
2023/12/26 12:30:04;;;;;;;;;;;;;;;10.49;69.71;99392.91;4377218;32;33918;-90
2023/12/26 12:32:41;;;;;;;;;;;;;;;10.54;69.22;99401.47;4371767;32;33534;-90
2023/12/26 12:35:13;;;;;;;;;;;;;;;10.20;70.48;99390.78;4357115;32;33935;-91
2023/12/26 12:37:41;;;;;;;;;;;;;;;10.36;70.19;99384.47;4358480;32;33409;-90
2023/12/26 12:40:12;;;;;;;;;;;;;;;10.48;69.56;99390.34;4371644;32;33742;-90
2023/12/26 12:42:42;;;;;;;;;;;;;;;10.23;70.62;99386.41;4376854;32;34248;-90
2023/12/26 12:45:10;;;;;;;;;;;;;;;10.20;70.63;99389.03;4375717;32;33038;-90
2023/12/26 12:47:40;;;;;;;;;;;;;;;10.26;70.48;99386.34;4372279;32;33663;-91
2023/12/26 12:50:09;;;;;;;;;;;;;;;10.26;70.28;99383.75;4371547;32;33891;-90
2023/12/26 12:52:42;;;;;;;;;;;;;;;10.39;70.52;99383.56;4376861;32;34961;-89
2023/12/26 12:55:10;;;;;;;;;;;;;;;10.42;70.59;99386.97;4374129;32;32966;-90
2023/12/26 12:57:45;;;;;;;;;;;;;;;10.65;69.70;99386.53;4372514;32;33802;-90
2023/12/26 13:00:13;;;;;;;;;;;;;;;10.64;70.07;99392.63;4363261;32;34485;-91
2023/12/26 13:02:48;;;;;;;;;;;;;;;10.65;70.13;99401.25;4360980;32;34586;-90
2023/12/26 13:05:17;;;;;;;;;;;;;;;10.48;70.68;99391.19;4376690;32;33707;-90
2023/12/26 13:07:48;;;;;;;;;;;;;;;10.47;70.75;99394.69;4372333;32;34218;-90
2023/12/26 13:10:18;;;;;;;;;;;;;;;10.92;68.95;99397.31;4371248;32;34664;-90
2023/12/26 13:12:52;;;;;;;;;;;;;;;10.99;68.72;99405.81;4371223;32;33776;-90
2023/12/26 13:15:25;;;;;;;;;;;;;;;10.98;68.55;99417.09;4375797;32;33307;-91